sensor_id;sensor_type;location;lat;lon;timestamp;pressure;altitude;pressure_sealevel;temperature;humidity
37066;BME280;22981;43.080;25.550;2023-05-02T00:01:25;100061.55;;;13.37;54.06
37066;BME280;22981;43.080;25.550;2023-05-02T00:03:53;100058.47;;;13.33;54.22
37066;BME280;22981;43.080;25.550;2023-05-02T00:06:20;100057.82;;;13.22;54.46
37066;BME280;22981;43.080;25.550;2023-05-02T00:08:48;100059.73;;;13.06;55.08
37066;BME280;22981;43.080;25.550;2023-05-02T00:11:16;100060.67;;;12.93;55.79
37066;BME280;22981;43.080;25.550;2023-05-02T00:13:43;100056.09;;;12.84;56.26
37066;BME280;22981;43.080;25.550;2023-05-02T00:16:11;100051.00;;;12.76;56.51
37066;BME280;22981;43.080;25.550;2023-05-02T00:18:39;100057.82;;;12.63;56.79
37066;BME280;22981;43.080;25.550;2023-05-02T00:21:06;100056.68;;;12.52;57.28
37066;BME280;22981;43.080;25.550;2023-05-02T00:23:34;100057.04;;;12.46;57.60
37066;BME280;22981;43.080;25.550;2023-05-02T00:26:02;100055.83;;;12.42;57.82
37066;BME280;22981;43.080;25.550;2023-05-02T00:28:30;100057.66;;;12.42;57.79
37066;BME280;22981;43.080;25.550;2023-05-02T00:30:58;100060.45;;;12.44;57.68
37066;BME280;22981;43.080;25.550;2023-05-02T00:33:26;100060.14;;;12.43;57.65
37066;BME280;22981;43.080;25.550;2023-05-02T00:35:53;100064.01;;;12.38;57.74
37066;BME280;22981;43.080;25.550;2023-05-02T00:38:21;100071.37;;;12.34;58.05
37066;BME280;22981;43.080;25.550;2023-05-02T00:40:49;100064.98;;;12.28;58.26
37066;BME280;22981;43.080;25.550;2023-05-02T00:43:18;100074.83;;;12.25;58.38
37066;BME280;22981;43.080;25.550;2023-05-02T00:45:46;100073.39;;;12.22;58.47
37066;BME280;22981;43.080;25.550;2023-05-02T00:48:14;100072.27;;;12.21;58.38
37066;BME280;22981;43.080;25.550;2023-05-02T00:50:43;100066.34;;;12.12;58.52
37066;BME280;22981;43.080;25.550;2023-05-02T00:53:10;100073.69;;;12.08;58.75
37066;BME280;22981;43.080;25.550;2023-05-02T00:55:38;100071.13;;;12.03;58.88
37066;BME280;22981;43.080;25.550;2023-05-02T00:58:10;100070.50;;;12.01;58.94
37066;BME280;22981;43.080;25.550;2023-05-02T01:06:14;100078.72;;;11.91;59.05
37066;BME280;22981;43.080;25.550;2023-05-02T01:08:55;100078.92;;;11.89;59.14
37066;BME280;22981;43.080;25.550;2023-05-02T01:14:04;100085.55;;;11.87;59.12
37066;BME280;22981;43.080;25.550;2023-05-02T01:16:35;100084.71;;;11.79;59.34
37066;BME280;22981;43.080;25.550;2023-05-02T01:19:12;100076.48;;;11.74;59.58
37066;BME280;22981;43.080;25.550;2023-05-02T01:21:40;100076.59;;;11.70;59.73
37066;BME280;22981;43.080;25.550;2023-05-02T01:24:18;100074.11;;;11.69;59.82
37066;BME280;22981;43.080;25.550;2023-05-02T01:27:06;100073.52;;;11.67;59.93
37066;BME280;22981;43.080;25.550;2023-05-02T01:29:31;100070.95;;;11.63;60.05
37066;BME280;22981;43.080;25.550;2023-05-02T01:32:00;100072.92;;;11.58;60.17
37066;BME280;22981;43.080;25.550;2023-05-02T01:34:29;100070.05;;;11.53;60.33
37066;BME280;22981;43.080;25.550;2023-05-02T01:36:59;100070.99;;;11.49;60.48
37066;BME280;22981;43.080;25.550;2023-05-02T01:39:29;100074.01;;;11.44;60.57
37066;BME280;22981;43.080;25.550;2023-05-02T01:41:58;100071.84;;;11.37;60.73
37066;BME280;22981;43.080;25.550;2023-05-02T01:44:29;100071.55;;;11.29;60.88
37066;BME280;22981;43.080;25.550;2023-05-02T01:47:00;100080.44;;;11.23;61.15
37066;BME280;22981;43.080;25.550;2023-05-02T01:49:29;100080.45;;;11.10;61.23
37066;BME280;22981;43.080;25.550;2023-05-02T01:51:59;100074.91;;;10.85;61.70
37066;BME280;22981;43.080;25.550;2023-05-02T01:54:29;100082.72;;;10.73;62.08
37066;BME280;22981;43.080;25.550;2023-05-02T01:56:58;100083.64;;;10.69;62.29
37066;BME280;22981;43.080;25.550;2023-05-02T01:59:29;100090.66;;;10.64;62.50
37066;BME280;22981;43.080;25.550;2023-05-02T02:01:59;100085.38;;;10.53;62.62
37066;BME280;22981;43.080;25.550;2023-05-02T02:04:28;100082.39;;;10.52;62.79
37066;BME280;22981;43.080;25.550;2023-05-02T02:07:00;100086.83;;;10.56;62.80
37066;BME280;22981;43.080;25.550;2023-05-02T02:09:26;100089.09;;;10.52;62.85
37066;BME280;22981;43.080;25.550;2023-05-02T02:12:11;100086.72;;;10.46;62.99
37066;BME280;22981;43.080;25.550;2023-05-02T02:14:45;100094.63;;;10.44;63.05
37066;BME280;22981;43.080;25.550;2023-05-02T02:17:14;100095.42;;;10.24;63.23
37066;BME280;22981;43.080;25.550;2023-05-02T02:19:43;100090.01;;;10.18;63.49
37066;BME280;22981;43.080;25.550;2023-05-02T02:22:13;100094.66;;;10.20;63.58
37066;BME280;22981;43.080;25.550;2023-05-02T02:24:42;100092.81;;;10.20;63.63
37066;BME280;22981;43.080;25.550;2023-05-02T02:27:10;100096.61;;;10.15;63.84
37066;BME280;22981;43.080;25.550;2023-05-02T02:29:38;100095.75;;;10.15;63.91
37066;BME280;22981;43.080;25.550;2023-05-02T02:32:06;100093.29;;;10.13;63.99
37066;BME280;22981;43.080;25.550;2023-05-02T02:34:33;100102.83;;;10.05;63.88
37066;BME280;22981;43.080;25.550;2023-05-02T02:37:13;100105.55;;;9.88;64.16
37066;BME280;22981;43.080;25.550;2023-05-02T02:45:25;100104.20;;;9.88;64.19
37066;BME280;22981;43.080;25.550;2023-05-02T02:53:33;100105.02;;;9.82;64.48
37066;BME280;22981;43.080;25.550;2023-05-02T02:56:05;100108.08;;;9.78;64.51
37066;BME280;22981;43.080;25.550;2023-05-02T02:59:03;100113.55;;;9.81;64.54
37066;BME280;22981;43.080;25.550;2023-05-02T03:01:32;100107.25;;;9.78;64.61
37066;BME280;22981;43.080;25.550;2023-05-02T03:04:01;100120.19;;;9.74;64.69
37066;BME280;22981;43.080;25.550;2023-05-02T03:06:30;100118.24;;;9.72;64.80
37066;BME280;22981;43.080;25.550;2023-05-02T03:08:58;100124.20;;;9.74;64.80
37066;BME280;22981;43.080;25.550;2023-05-02T03:11:25;100127.91;;;9.73;64.87
37066;BME280;22981;43.080;25.550;2023-05-02T03:13:53;100127.78;;;9.71;64.88
37066;BME280;22981;43.080;25.550;2023-05-02T03:16:34;100130.73;;;9.65;65.00
37066;BME280;22981;43.080;25.550;2023-05-02T03:19:03;100133.80;;;9.62;65.07
37066;BME280;22981;43.080;25.550;2023-05-02T03:21:31;100124.44;;;9.62;65.01
37066;BME280;22981;43.080;25.550;2023-05-02T03:24:01;100127.33;;;9.61;65.09
37066;BME280;22981;43.080;25.550;2023-05-02T03:26:29;100134.52;;;9.60;65.09
37066;BME280;22981;43.080;25.550;2023-05-02T03:28:56;100125.49;;;9.50;65.15
37066;BME280;22981;43.080;25.550;2023-05-02T03:31:24;100126.22;;;9.48;65.27
37066;BME280;22981;43.080;25.550;2023-05-02T03:33:52;100130.23;;;9.48;65.23
37066;BME280;22981;43.080;25.550;2023-05-02T03:36:19;100133.50;;;9.33;65.35
37066;BME280;22981;43.080;25.550;2023-05-02T03:38:47;100131.94;;;9.28;65.53
37066;BME280;22981;43.080;25.550;2023-05-02T03:41:15;100140.98;;;9.27;65.50
37066;BME280;22981;43.080;25.550;2023-05-02T03:43:42;100138.00;;;9.15;65.42
37066;BME280;22981;43.080;25.550;2023-05-02T03:46:10;100143.45;;;9.00;65.61
37066;BME280;22981;43.080;25.550;2023-05-02T03:48:38;100145.98;;;8.98;65.82
37066;BME280;22981;43.080;25.550;2023-05-02T03:51:06;100144.27;;;9.01;65.86
37066;BME280;22981;43.080;25.550;2023-05-02T03:53:35;100153.66;;;9.08;65.85
37066;BME280;22981;43.080;25.550;2023-05-02T03:56:03;100157.48;;;9.09;65.74
37066;BME280;22981;43.080;25.550;2023-05-02T03:58:30;100162.45;;;9.01;65.99
37066;BME280;22981;43.080;25.550;2023-05-02T04:00:58;100157.25;;;9.04;66.10
37066;BME280;22981;43.080;25.550;2023-05-02T04:03:25;100163.45;;;9.11;66.13
37066;BME280;22981;43.080;25.550;2023-05-02T04:05:53;100166.13;;;9.22;66.03
37066;BME280;22981;43.080;25.550;2023-05-02T04:08:21;100169.98;;;9.30;65.97
37066;BME280;22981;43.080;25.550;2023-05-02T04:10:50;100166.32;;;9.38;65.87
37066;BME280;22981;43.080;25.550;2023-05-02T04:13:18;100161.49;;;9.37;65.99
37066;BME280;22981;43.080;25.550;2023-05-02T04:15:45;100165.77;;;9.42;65.99
37066;BME280;22981;43.080;25.550;2023-05-02T04:18:13;100168.30;;;9.40;65.98
37066;BME280;22981;43.080;25.550;2023-05-02T04:20:42;100174.55;;;9.36;66.11
37066;BME280;22981;43.080;25.550;2023-05-02T04:23:10;100174.61;;;9.32;66.44
37066;BME280;22981;43.080;25.550;2023-05-02T04:25:38;100172.25;;;9.33;66.60
37066;BME280;22981;43.080;25.550;2023-05-02T04:28:06;100172.23;;;9.44;66.57
37066;BME280;22981;43.080;25.550;2023-05-02T04:30:33;100168.11;;;9.59;66.35
37066;BME280;22981;43.080;25.550;2023-05-02T04:33:02;100165.03;;;9.72;66.15
37066;BME280;22981;43.080;25.550;2023-05-02T04:35:29;100167.11;;;9.77;66.25
37066;BME280;22981;43.080;25.550;2023-05-02T04:37:57;100172.05;;;9.80;66.41
37066;BME280;22981;43.080;25.550;2023-05-02T04:40:25;100174.25;;;9.87;66.44
37066;BME280;22981;43.080;25.550;2023-05-02T04:42:52;100169.70;;;9.98;66.53
37066;BME280;22981;43.080;25.550;2023-05-02T04:45:20;100167.73;;;10.20;66.49
37066;BME280;22981;43.080;25.550;2023-05-02T04:47:47;100152.39;;;10.42;66.21
37066;BME280;22981;43.080;25.550;2023-05-02T04:50:15;100153.03;;;10.58;65.94
37066;BME280;22981;43.080;25.550;2023-05-02T04:52:42;100152.66;;;10.74;65.69
37066;BME280;22981;43.080;25.550;2023-05-02T04:55:10;100157.84;;;10.89;65.63
37066;BME280;22981;43.080;25.550;2023-05-02T04:57:38;100156.20;;;11.01;65.56
37066;BME280;22981;43.080;25.550;2023-05-02T05:00:06;100150.52;;;11.13;65.44
37066;BME280;22981;43.080;25.550;2023-05-02T05:02:34;100154.64;;;11.29;65.39
37066;BME280;22981;43.080;25.550;2023-05-02T05:05:02;100158.35;;;11.48;65.41
37066;BME280;22981;43.080;25.550;2023-05-02T05:07:29;100160.05;;;11.71;65.14
37066;BME280;22981;43.080;25.550;2023-05-02T05:09:57;100155.67;;;11.97;64.72
37066;BME280;22981;43.080;25.550;2023-05-02T05:12:24;100159.59;;;12.23;64.10
37066;BME280;22981;43.080;25.550;2023-05-02T05:14:52;100154.77;;;12.54;62.80
37066;BME280;22981;43.080;25.550;2023-05-02T05:17:20;100150.67;;;12.84;61.33
37066;BME280;22981;43.080;25.550;2023-05-02T05:19:48;100155.84;;;13.10;60.08
37066;BME280;22981;43.080;25.550;2023-05-02T05:22:15;100159.31;;;13.33;59.08
37066;BME280;22981;43.080;25.550;2023-05-02T05:24:55;100151.36;;;13.54;58.16
37066;BME280;22981;43.080;25.550;2023-05-02T05:27:20;100150.84;;;13.73;57.21
37066;BME280;22981;43.080;25.550;2023-05-02T05:29:47;100150.84;;;13.91;57.04
37066;BME280;22981;43.080;25.550;2023-05-02T05:32:15;100148.37;;;14.08;56.76
37066;BME280;22981;43.080;25.550;2023-05-02T05:34:43;100153.96;;;14.25;56.34
37066;BME280;22981;43.080;25.550;2023-05-02T05:37:10;100145.70;;;14.38;55.72
37066;BME280;22981;43.080;25.550;2023-05-02T05:39:38;100151.84;;;14.55;55.25
37066;BME280;22981;43.080;25.550;2023-05-02T05:42:05;100147.69;;;14.70;54.93
37066;BME280;22981;43.080;25.550;2023-05-02T05:44:35;100148.67;;;14.88;54.38
37066;BME280;22981;43.080;25.550;2023-05-02T05:47:03;100147.92;;;15.01;53.74
37066;BME280;22981;43.080;25.550;2023-05-02T05:49:31;100151.70;;;15.12;52.59
37066;BME280;22981;43.080;25.550;2023-05-02T05:52:00;100148.14;;;15.21;52.05
37066;BME280;22981;43.080;25.550;2023-05-02T05:54:28;100147.02;;;15.31;51.88
37066;BME280;22981;43.080;25.550;2023-05-02T05:56:56;100148.09;;;15.42;50.93
37066;BME280;22981;43.080;25.550;2023-05-02T05:59:23;100144.27;;;15.52;50.48
37066;BME280;22981;43.080;25.550;2023-05-02T06:01:51;100149.06;;;15.62;49.75
37066;BME280;22981;43.080;25.550;2023-05-02T06:04:19;100144.77;;;15.72;49.09
37066;BME280;22981;43.080;25.550;2023-05-02T06:06:47;100144.69;;;15.82;48.13
37066;BME280;22981;43.080;25.550;2023-05-02T06:09:16;100140.55;;;15.91;47.98
37066;BME280;22981;43.080;25.550;2023-05-02T06:11:43;100140.00;;;16.03;47.52
37066;BME280;22981;43.080;25.550;2023-05-02T06:14:11;100152.63;;;16.14;46.95
37066;BME280;22981;43.080;25.550;2023-05-02T06:16:38;100142.80;;;16.22;46.06
37066;BME280;22981;43.080;25.550;2023-05-02T06:19:07;100149.25;;;16.33;46.04
37066;BME280;22981;43.080;25.550;2023-05-02T06:21:37;100148.36;;;16.44;45.11
37066;BME280;22981;43.080;25.550;2023-05-02T06:24:05;100147.22;;;16.55;45.07
37066;BME280;22981;43.080;25.550;2023-05-02T06:26:33;100142.52;;;16.64;44.26
37066;BME280;22981;43.080;25.550;2023-05-02T06:29:01;100147.56;;;16.72;43.86
37066;BME280;22981;43.080;25.550;2023-05-02T06:31:29;100140.16;;;16.82;44.07
37066;BME280;22981;43.080;25.550;2023-05-02T06:33:56;100140.09;;;16.94;43.92
37066;BME280;22981;43.080;25.550;2023-05-02T06:36:24;100139.21;;;17.05;43.54
37066;BME280;22981;43.080;25.550;2023-05-02T06:38:53;100137.67;;;17.12;42.80
37066;BME280;22981;43.080;25.550;2023-05-02T06:41:20;100146.48;;;17.21;42.43
37066;BME280;22981;43.080;25.550;2023-05-02T06:43:48;100132.52;;;17.27;42.20
37066;BME280;22981;43.080;25.550;2023-05-02T06:46:16;100137.80;;;17.36;42.04
37066;BME280;22981;43.080;25.550;2023-05-02T06:48:45;100141.72;;;17.45;41.59
37066;BME280;22981;43.080;25.550;2023-05-02T06:51:14;100132.36;;;17.53;41.55
37066;BME280;22981;43.080;25.550;2023-05-02T06:53:41;100141.16;;;17.63;41.25
37066;BME280;22981;43.080;25.550;2023-05-02T06:56:09;100140.73;;;17.71;41.03
37066;BME280;22981;43.080;25.550;2023-05-02T06:58:37;100139.02;;;17.82;41.10
37066;BME280;22981;43.080;25.550;2023-05-02T07:01:04;100141.85;;;17.92;41.22
37066;BME280;22981;43.080;25.550;2023-05-02T07:03:32;100142.02;;;18.05;40.85
37066;BME280;22981;43.080;25.550;2023-05-02T07:06:00;100135.07;;;18.14;40.93
37066;BME280;22981;43.080;25.550;2023-05-02T07:08:27;100135.18;;;18.24;39.94
37066;BME280;22981;43.080;25.550;2023-05-02T07:10:55;100126.06;;;18.33;39.70
37066;BME280;22981;43.080;25.550;2023-05-02T07:13:22;100133.20;;;18.41;39.65
37066;BME280;22981;43.080;25.550;2023-05-02T07:15:50;100137.12;;;18.50;39.38
37066;BME280;22981;43.080;25.550;2023-05-02T07:18:17;100147.51;;;18.59;39.09
37066;BME280;22981;43.080;25.550;2023-05-02T07:20:45;100137.52;;;18.64;38.14
37066;BME280;22981;43.080;25.550;2023-05-02T07:23:13;100143.59;;;18.71;37.77
37066;BME280;22981;43.080;25.550;2023-05-02T07:25:40;100142.83;;;18.79;37.49
37066;BME280;22981;43.080;25.550;2023-05-02T07:28:08;100141.28;;;18.88;37.04
37066;BME280;22981;43.080;25.550;2023-05-02T07:30:35;100135.39;;;18.96;36.38
37066;BME280;22981;43.080;25.550;2023-05-02T07:33:03;100132.20;;;19.04;35.38
37066;BME280;22981;43.080;25.550;2023-05-02T07:35:30;100131.19;;;19.10;35.21
37066;BME280;22981;43.080;25.550;2023-05-02T07:37:58;100128.84;;;19.24;35.93
37066;BME280;22981;43.080;25.550;2023-05-02T07:40:26;100129.44;;;19.34;35.39
37066;BME280;22981;43.080;25.550;2023-05-02T07:42:53;100119.42;;;19.37;33.93
37066;BME280;22981;43.080;25.550;2023-05-02T07:45:21;100124.58;;;19.38;33.37
37066;BME280;22981;43.080;25.550;2023-05-02T07:47:48;100129.80;;;19.47;34.00
37066;BME280;22981;43.080;25.550;2023-05-02T07:50:16;100139.68;;;19.61;34.54
37066;BME280;22981;43.080;25.550;2023-05-02T07:52:44;100134.58;;;19.67;33.27
37066;BME280;22981;43.080;25.550;2023-05-02T07:55:11;100122.09;;;19.74;33.21
37066;BME280;22981;43.080;25.550;2023-05-02T07:57:40;100130.04;;;19.86;33.27
37066;BME280;22981;43.080;25.550;2023-05-02T08:00:08;100127.90;;;19.95;32.06
37066;BME280;22981;43.080;25.550;2023-05-02T08:02:37;100129.32;;;20.06;32.23
37066;BME280;22981;43.080;25.550;2023-05-02T08:05:04;100127.44;;;20.09;31.58
37066;BME280;22981;43.080;25.550;2023-05-02T08:07:32;100131.02;;;20.22;31.52
37066;BME280;22981;43.080;25.550;2023-05-02T08:10:02;100126.42;;;20.30;31.03
37066;BME280;22981;43.080;25.550;2023-05-02T08:12:29;100131.06;;;20.40;30.44
37066;BME280;22981;43.080;25.550;2023-05-02T08:14:57;100133.78;;;20.45;30.69
37066;BME280;22981;43.080;25.550;2023-05-02T08:17:24;100127.30;;;20.48;29.97
37066;BME280;22981;43.080;25.550;2023-05-02T08:19:53;100122.97;;;20.58;30.26
37066;BME280;22981;43.080;25.550;2023-05-02T08:22:21;100122.97;;;20.63;29.85
37066;BME280;22981;43.080;25.550;2023-05-02T08:24:49;100128.95;;;20.67;29.72
37066;BME280;22981;43.080;25.550;2023-05-02T08:27:16;100123.53;;;20.75;29.75
37066;BME280;22981;43.080;25.550;2023-05-02T08:29:44;100129.52;;;20.85;29.53
37066;BME280;22981;43.080;25.550;2023-05-02T08:32:11;100132.25;;;20.92;29.35
37066;BME280;22981;43.080;25.550;2023-05-02T08:34:39;100134.16;;;20.97;29.07
37066;BME280;22981;43.080;25.550;2023-05-02T08:37:09;100123.00;;;21.09;29.28
37066;BME280;22981;43.080;25.550;2023-05-02T08:39:38;100127.36;;;21.12;28.52
37066;BME280;22981;43.080;25.550;2023-05-02T08:42:07;100133.59;;;21.15;28.57
37066;BME280;22981;43.080;25.550;2023-05-02T08:44:34;100117.28;;;21.20;28.52
37066;BME280;22981;43.080;25.550;2023-05-02T08:47:04;100127.63;;;21.29;28.74
37066;BME280;22981;43.080;25.550;2023-05-02T08:49:33;100124.09;;;21.38;28.32
37066;BME280;22981;43.080;25.550;2023-05-02T08:52:02;100137.16;;;21.39;27.84
37066;BME280;22981;43.080;25.550;2023-05-02T08:54:32;100115.88;;;21.28;27.55
37066;BME280;22981;43.080;25.550;2023-05-02T08:57:02;100122.44;;;21.30;27.83
37066;BME280;22981;43.080;25.550;2023-05-02T08:59:30;100128.72;;;21.38;27.65
37066;BME280;22981;43.080;25.550;2023-05-02T09:02:04;100125.70;;;21.37;28.06
37066;BME280;22981;43.080;25.550;2023-05-02T09:04:31;100124.59;;;21.45;27.51
37066;BME280;22981;43.080;25.550;2023-05-02T09:07:01;100116.72;;;21.46;26.94
37066;BME280;22981;43.080;25.550;2023-05-02T09:09:28;100117.27;;;21.43;26.37
37066;BME280;22981;43.080;25.550;2023-05-02T09:11:58;100117.26;;;21.41;26.19
37066;BME280;22981;43.080;25.550;2023-05-02T09:14:26;100105.02;;;21.46;26.73
37066;BME280;22981;43.080;25.550;2023-05-02T09:16:58;100100.89;;;21.56;26.88
37066;BME280;22981;43.080;25.550;2023-05-02T09:19:26;100102.23;;;21.64;27.13
37066;BME280;22981;43.080;25.550;2023-05-02T09:21:59;100095.69;;;21.67;26.53
37066;BME280;22981;43.080;25.550;2023-05-02T09:24:29;100103.84;;;21.70;26.94
37066;BME280;22981;43.080;25.550;2023-05-02T09:26:59;100104.37;;;21.77;26.88
37066;BME280;22981;43.080;25.550;2023-05-02T09:29:28;100097.55;;;21.77;27.04
37066;BME280;22981;43.080;25.550;2023-05-02T09:31:58;100089.09;;;21.81;27.02
37066;BME280;22981;43.080;25.550;2023-05-02T09:34:25;100086.61;;;21.90;26.90
37066;BME280;22981;43.080;25.550;2023-05-02T09:36:53;100081.94;;;21.95;26.89
37066;BME280;22981;43.080;25.550;2023-05-02T09:39:26;100085.15;;;22.05;26.36
37066;BME280;22981;43.080;25.550;2023-05-02T09:41:57;100093.10;;;22.02;25.24
37066;BME280;22981;43.080;25.550;2023-05-02T09:44:26;100088.52;;;21.89;24.91
37066;BME280;22981;43.080;25.550;2023-05-02T09:46:55;100089.67;;;21.75;24.68
37066;BME280;22981;43.080;25.550;2023-05-02T09:49:44;100089.41;;;21.69;24.55
37066;BME280;22981;43.080;25.550;2023-05-02T09:52:16;100083.95;;;21.69;24.67
37066;BME280;22981;43.080;25.550;2023-05-02T09:54:44;100092.91;;;21.75;25.91
37066;BME280;22981;43.080;25.550;2023-05-02T09:57:12;100077.33;;;21.93;25.34
37066;BME280;22981;43.080;25.550;2023-05-02T09:59:40;100066.91;;;22.00;25.77
37066;BME280;22981;43.080;25.550;2023-05-02T10:02:08;100069.05;;;22.14;26.16
37066;BME280;22981;43.080;25.550;2023-05-02T10:04:38;100071.77;;;22.19;25.89
37066;BME280;22981;43.080;25.550;2023-05-02T10:07:07;100068.75;;;22.18;25.80
37066;BME280;22981;43.080;25.550;2023-05-02T10:09:35;100072.88;;;22.15;25.63
37066;BME280;22981;43.080;25.550;2023-05-02T10:12:04;100066.32;;;22.14;25.64
37066;BME280;22981;43.080;25.550;2023-05-02T10:14:38;100072.00;;;22.22;25.52
37066;BME280;22981;43.080;25.550;2023-05-02T10:17:19;100071.44;;;22.28;26.69
37066;BME280;22981;43.080;25.550;2023-05-02T10:20:05;100065.98;;;22.28;25.96
37066;BME280;22981;43.080;25.550;2023-05-02T10:22:30;100062.19;;;22.21;26.80
37066;BME280;22981;43.080;25.550;2023-05-02T10:24:59;100064.88;;;22.27;26.19
37066;BME280;22981;43.080;25.550;2023-05-02T10:27:32;100059.16;;;22.28;26.48
37066;BME280;22981;43.080;25.550;2023-05-02T10:30:00;100056.91;;;22.35;26.11
37066;BME280;22981;43.080;25.550;2023-05-02T10:32:35;100068.92;;;22.37;25.71
37066;BME280;22981;43.080;25.550;2023-05-02T10:35:06;100052.30;;;22.36;25.93
37066;BME280;22981;43.080;25.550;2023-05-02T10:37:35;100047.87;;;22.45;26.61
37066;BME280;22981;43.080;25.550;2023-05-02T10:40:09;100042.02;;;22.57;27.06
37066;BME280;22981;43.080;25.550;2023-05-02T10:42:37;100032.67;;;22.68;26.52
37066;BME280;22981;43.080;25.550;2023-05-02T10:45:09;100032.91;;;22.74;26.68
37066;BME280;22981;43.080;25.550;2023-05-02T10:47:35;100033.37;;;22.81;26.67
37066;BME280;22981;43.080;25.550;2023-05-02T10:50:03;100031.44;;;22.84;26.44
37066;BME280;22981;43.080;25.550;2023-05-02T10:52:37;100037.22;;;22.78;26.92
37066;BME280;22981;43.080;25.550;2023-05-02T10:55:17;100041.35;;;22.75;26.70
37066;BME280;22981;43.080;25.550;2023-05-02T11:00:28;100025.39;;;22.56;25.66
37066;BME280;22981;43.080;25.550;2023-05-02T11:02:56;100020.20;;;22.57;26.19
37066;BME280;22981;43.080;25.550;2023-05-02T11:05:24;100025.59;;;22.64;26.05
37066;BME280;22981;43.080;25.550;2023-05-02T11:10:45;100022.11;;;22.56;25.79
37066;BME280;22981;43.080;25.550;2023-05-02T11:13:13;100029.12;;;22.70;26.54
37066;BME280;22981;43.080;25.550;2023-05-02T11:18:12;100016.98;;;22.84;25.96
37066;BME280;22981;43.080;25.550;2023-05-02T11:20:43;100028.16;;;22.85;25.48
37066;BME280;22981;43.080;25.550;2023-05-02T11:25:51;100024.07;;;22.82;25.60
37066;BME280;22981;43.080;25.550;2023-05-02T11:28:39;100008.48;;;22.85;25.26
37066;BME280;22981;43.080;25.550;2023-05-02T11:34:00;100019.55;;;23.04;25.37
37066;BME280;22981;43.080;25.550;2023-05-02T11:36:34;100017.63;;;23.05;25.37
37066;BME280;22981;43.080;25.550;2023-05-02T11:39:02;100021.91;;;23.13;25.68
37066;BME280;22981;43.080;25.550;2023-05-02T11:41:38;100018.55;;;23.21;25.72
37066;BME280;22981;43.080;25.550;2023-05-02T11:44:06;100004.22;;;23.30;25.64
37066;BME280;22981;43.080;25.550;2023-05-02T11:46:35;99993.53;;;23.33;24.76
37066;BME280;22981;43.080;25.550;2023-05-02T11:49:03;99965.36;;;23.14;25.40
37066;BME280;22981;43.080;25.550;2023-05-02T11:51:31;99995.03;;;23.47;25.88
37066;BME280;22981;43.080;25.550;2023-05-02T11:53:59;99996.55;;;23.56;25.12
37066;BME280;22981;43.080;25.550;2023-05-02T11:56:26;99988.63;;;23.54;24.92
37066;BME280;22981;43.080;25.550;2023-05-02T11:59:01;99980.36;;;23.59;24.80
37066;BME280;22981;43.080;25.550;2023-05-02T12:01:29;99976.81;;;23.59;24.38
37066;BME280;22981;43.080;25.550;2023-05-02T12:04:04;99983.88;;;23.62;24.64
37066;BME280;22981;43.080;25.550;2023-05-02T12:06:35;99971.29;;;23.66;24.64
37066;BME280;22981;43.080;25.550;2023-05-02T12:09:12;99971.77;;;23.71;24.94
37066;BME280;22981;43.080;25.550;2023-05-02T12:11:39;99973.04;;;23.79;24.83
37066;BME280;22981;43.080;25.550;2023-05-02T12:14:07;99965.17;;;23.74;24.11
37066;BME280;22981;43.080;25.550;2023-05-02T12:16:35;99966.30;;;23.71;24.02
37066;BME280;22981;43.080;25.550;2023-05-02T12:19:03;99967.72;;;23.68;23.67
37066;BME280;22981;43.080;25.550;2023-05-02T12:21:31;99970.52;;;23.61;23.65
37066;BME280;22981;43.080;25.550;2023-05-02T12:24:00;99973.91;;;23.53;23.72
37066;BME280;22981;43.080;25.550;2023-05-02T12:26:28;99970.84;;;23.57;24.04
37066;BME280;22981;43.080;25.550;2023-05-02T12:28:57;99964.20;;;23.65;24.97
37066;BME280;22981;43.080;25.550;2023-05-02T12:31:25;99964.84;;;23.79;24.17
37066;BME280;22981;43.080;25.550;2023-05-02T12:33:56;99963.23;;;23.75;23.55
37066;BME280;22981;43.080;25.550;2023-05-02T12:36:26;99962.78;;;23.68;23.74
37066;BME280;22981;43.080;25.550;2023-05-02T12:38:57;99970.27;;;23.60;23.70
37066;BME280;22981;43.080;25.550;2023-05-02T12:41:36;99953.48;;;23.47;24.06
37066;BME280;22981;43.080;25.550;2023-05-02T12:44:05;99946.83;;;23.54;23.91
37066;BME280;22981;43.080;25.550;2023-05-02T12:46:33;99949.33;;;23.50;23.86
37066;BME280;22981;43.080;25.550;2023-05-02T12:49:03;99954.56;;;23.46;24.31
37066;BME280;22981;43.080;25.550;2023-05-02T12:51:33;99939.37;;;23.38;23.94
37066;BME280;22981;43.080;25.550;2023-05-02T12:54:02;99950.36;;;23.35;23.74
37066;BME280;22981;43.080;25.550;2023-05-02T12:56:37;99943.59;;;23.30;24.05
37066;BME280;22981;43.080;25.550;2023-05-02T12:58:59;99947.41;;;23.29;24.28
37066;BME280;22981;43.080;25.550;2023-05-02T13:01:29;99935.12;;;23.29;23.63
37066;BME280;22981;43.080;25.550;2023-05-02T13:03:57;99933.27;;;23.24;23.95
37066;BME280;22981;43.080;25.550;2023-05-02T13:06:24;99932.70;;;23.25;24.01
37066;BME280;22981;43.080;25.550;2023-05-02T13:08:52;99930.27;;;23.26;23.85
37066;BME280;22981;43.080;25.550;2023-05-02T13:11:20;99930.77;;;23.28;23.93
37066;BME280;22981;43.080;25.550;2023-05-02T13:13:47;99930.98;;;23.34;24.24
37066;BME280;22981;43.080;25.550;2023-05-02T13:16:15;99918.38;;;23.36;24.39
37066;BME280;22981;43.080;25.550;2023-05-02T13:18:42;99922.71;;;23.39;24.55
37066;BME280;22981;43.080;25.550;2023-05-02T13:21:10;99919.98;;;23.39;24.50
37066;BME280;22981;43.080;25.550;2023-05-02T13:23:38;99923.59;;;23.35;24.70
37066;BME280;22981;43.080;25.550;2023-05-02T13:26:06;99917.09;;;23.31;24.15